sensor_id;sensor_type;location;lat;lon;timestamp;P1;durP1;ratioP1;P2;durP2;ratioP2
26034;SDS011;13809;48.632;11.576;2023-06-05T00:02:48;2.97;;;2.77;;
26034;SDS011;13809;48.632;11.576;2023-06-05T00:07:51;3.00;;;2.70;;
26034;SDS011;13809;48.632;11.576;2023-06-05T00:12:56;2.67;;;2.47;;
26034;SDS011;13809;48.632;11.576;2023-06-05T00:17:59;2.50;;;2.30;;
26034;SDS011;13809;48.632;11.576;2023-06-05T00:23:02;3.20;;;2.90;;
26034;SDS011;13809;48.632;11.576;2023-06-05T00:28:07;2.60;;;2.40;;
26034;SDS011;13809;48.632;11.576;2023-06-05T00:33:10;2.73;;;2.53;;
26034;SDS011;13809;48.632;11.576;2023-06-05T00:38:13;3.20;;;2.83;;
26034;SDS011;13809;48.632;11.576;2023-06-05T00:43:18;3.93;;;2.70;;
26034;SDS011;13809;48.632;11.576;2023-06-05T00:48:21;2.77;;;2.57;;
26034;SDS011;13809;48.632;11.576;2023-06-05T00:53:25;4.33;;;2.87;;
26034;SDS011;13809;48.632;11.576;2023-06-05T00:58:30;2.80;;;2.60;;
26034;SDS011;13809;48.632;11.576;2023-06-05T01:03:34;3.20;;;2.90;;
26034;SDS011;13809;48.632;11.576;2023-06-05T01:08:38;3.10;;;2.80;;
26034;SDS011;13809;48.632;11.576;2023-06-05T01:13:45;2.93;;;2.67;;
26034;SDS011;13809;48.632;11.576;2023-06-05T01:18:53;4.27;;;3.10;;
26034;SDS011;13809;48.632;11.576;2023-06-05T01:23:58;3.47;;;3.17;;
26034;SDS011;13809;48.632;11.576;2023-06-05T01:29:03;4.30;;;3.40;;
26034;SDS011;13809;48.632;11.576;2023-06-05T01:34:11;3.47;;;3.17;;
26034;SDS011;13809;48.632;11.576;2023-06-05T01:39:22;3.20;;;3.00;;
26034;SDS011;13809;48.632;11.576;2023-06-05T01:44:27;5.90;;;5.40;;
26034;SDS011;13809;48.632;11.576;2023-06-05T01:49:31;4.33;;;3.93;;
26034;SDS011;13809;48.632;11.576;2023-06-05T01:54:35;3.67;;;3.33;;
26034;SDS011;13809;48.632;11.576;2023-06-05T01:59:40;3.57;;;3.30;;
26034;SDS011;13809;48.632;11.576;2023-06-05T02:04:44;3.50;;;3.20;;
26034;SDS011;13809;48.632;11.576;2023-06-05T02:09:50;3.70;;;3.40;;
26034;SDS011;13809;48.632;11.576;2023-06-05T02:14:53;3.53;;;3.23;;
26034;SDS011;13809;48.632;11.576;2023-06-05T02:19:58;3.80;;;3.50;;
26034;SDS011;13809;48.632;11.576;2023-06-05T02:25:03;3.60;;;3.30;;
26034;SDS011;13809;48.632;11.576;2023-06-05T02:30:07;6.63;;;3.60;;
26034;SDS011;13809;48.632;11.576;2023-06-05T02:35:11;4.33;;;3.50;;
26034;SDS011;13809;48.632;11.576;2023-06-05T02:40:15;4.23;;;3.83;;
26034;SDS011;13809;48.632;11.576;2023-06-05T02:45:19;3.70;;;3.40;;
26034;SDS011;13809;48.632;11.576;2023-06-05T02:50:22;3.90;;;3.60;;
26034;SDS011;13809;48.632;11.576;2023-06-05T02:55:26;4.17;;;3.70;;
26034;SDS011;13809;48.632;11.576;2023-06-05T03:00:31;4.30;;;4.00;;
26034;SDS011;13809;48.632;11.576;2023-06-05T03:05:34;4.50;;;4.20;;
26034;SDS011;13809;48.632;11.576;2023-06-05T03:10:39;4.70;;;4.30;;
26034;SDS011;13809;48.632;11.576;2023-06-05T03:15:42;5.10;;;4.70;;
26034;SDS011;13809;48.632;11.576;2023-06-05T03:20:47;4.50;;;4.17;;
26034;SDS011;13809;48.632;11.576;2023-06-05T03:25:54;5.27;;;4.30;;
26034;SDS011;13809;48.632;11.576;2023-06-05T03:30:57;4.13;;;3.73;;
26034;SDS011;13809;48.632;11.576;2023-06-05T03:36:01;3.80;;;3.50;;
26034;SDS011;13809;48.632;11.576;2023-06-05T03:41:05;3.47;;;3.17;;
26034;SDS011;13809;48.632;11.576;2023-06-05T03:46:09;3.30;;;3.07;;
26034;SDS011;13809;48.632;11.576;2023-06-05T03:51:19;3.00;;;2.80;;
26034;SDS011;13809;48.632;11.576;2023-06-05T03:56:24;3.37;;;3.07;;
26034;SDS011;13809;48.632;11.576;2023-06-05T04:01:33;3.17;;;2.97;;
26034;SDS011;13809;48.632;11.576;2023-06-05T04:06:38;3.47;;;3.17;;
26034;SDS011;13809;48.632;11.576;2023-06-05T04:11:43;3.77;;;3.47;;
26034;SDS011;13809;48.632;11.576;2023-06-05T04:16:48;4.00;;;3.13;;
26034;SDS011;13809;48.632;11.576;2023-06-05T04:21:52;3.00;;;2.80;;
26034;SDS011;13809;48.632;11.576;2023-06-05T04:26:56;6.83;;;3.50;;
26034;SDS011;13809;48.632;11.576;2023-06-05T04:32:02;5.67;;;3.60;;
26034;SDS011;13809;48.632;11.576;2023-06-05T04:37:05;3.83;;;3.53;;
26034;SDS011;13809;48.632;11.576;2023-06-05T04:42:10;3.77;;;3.33;;
26034;SDS011;13809;48.632;11.576;2023-06-05T04:47:16;3.53;;;3.23;;
26034;SDS011;13809;48.632;11.576;2023-06-05T04:52:19;3.33;;;3.13;;
26034;SDS011;13809;48.632;11.576;2023-06-05T04:57:24;3.53;;;3.00;;
26034;SDS011;13809;48.632;11.576;2023-06-05T05:02:28;4.00;;;2.93;;
26034;SDS011;13809;48.632;11.576;2023-06-05T05:07:31;3.27;;;2.97;;
26034;SDS011;13809;48.632;11.576;2023-06-05T05:12:37;4.20;;;3.00;;
26034;SDS011;13809;48.632;11.576;2023-06-05T05:17:40;2.87;;;2.57;;
26034;SDS011;13809;48.632;11.576;2023-06-05T05:22:44;3.10;;;2.90;;
26034;SDS011;13809;48.632;11.576;2023-06-05T05:27:49;2.80;;;2.60;;
26034;SDS011;13809;48.632;11.576;2023-06-05T05:32:53;2.90;;;2.60;;
26034;SDS011;13809;48.632;11.576;2023-06-05T05:37:56;3.27;;;2.53;;
26034;SDS011;13809;48.632;11.576;2023-06-05T05:43:01;4.00;;;2.40;;
26034;SDS011;13809;48.632;11.576;2023-06-05T05:48:04;2.27;;;2.10;;
26034;SDS011;13809;48.632;11.576;2023-06-05T05:53:07;3.67;;;2.53;;
26034;SDS011;13809;48.632;11.576;2023-06-05T05:58:12;2.70;;;2.50;;
26034;SDS011;13809;48.632;11.576;2023-06-05T06:03:16;2.60;;;2.40;;
26034;SDS011;13809;48.632;11.576;2023-06-05T06:08:20;3.27;;;2.63;;
26034;SDS011;13809;48.632;11.576;2023-06-05T06:13:24;3.90;;;2.53;;
26034;SDS011;13809;48.632;11.576;2023-06-05T06:18:27;2.33;;;2.23;;
26034;SDS011;13809;48.632;11.576;2023-06-05T06:23:31;3.17;;;2.70;;
26034;SDS011;13809;48.632;11.576;2023-06-05T06:28:35;3.97;;;2.63;;
26034;SDS011;13809;48.632;11.576;2023-06-05T06:33:40;2.90;;;2.67;;
26034;SDS011;13809;48.632;11.576;2023-06-05T06:38:45;3.23;;;2.80;;
26034;SDS011;13809;48.632;11.576;2023-06-05T06:43:49;3.40;;;2.50;;
26034;SDS011;13809;48.632;11.576;2023-06-05T06:48:53;3.13;;;2.90;;
26034;SDS011;13809;48.632;11.576;2023-06-05T06:53:57;3.20;;;2.90;;
26034;SDS011;13809;48.632;11.576;2023-06-05T06:59:05;4.80;;;3.10;;
26034;SDS011;13809;48.632;11.576;2023-06-05T07:04:14;2.93;;;2.63;;
26034;SDS011;13809;48.632;11.576;2023-06-05T07:09:21;3.17;;;2.80;;
26034;SDS011;13809;48.632;11.576;2023-06-05T07:14:26;4.20;;;3.03;;
26034;SDS011;13809;48.632;11.576;2023-06-05T07:19:29;3.30;;;3.10;;
26034;SDS011;13809;48.632;11.576;2023-06-05T07:24:33;3.43;;;3.13;;
26034;SDS011;13809;48.632;11.576;2023-06-05T07:29:39;3.57;;;3.27;;
26034;SDS011;13809;48.632;11.576;2023-06-05T07:34:42;4.83;;;3.93;;
26034;SDS011;13809;48.632;11.576;2023-06-05T07:39:45;3.97;;;3.60;;
26034;SDS011;13809;48.632;11.576;2023-06-05T07:44:53;3.83;;;3.53;;
26034;SDS011;13809;48.632;11.576;2023-06-05T07:49:56;4.20;;;3.80;;
26034;SDS011;13809;48.632;11.576;2023-06-05T07:55:02;4.10;;;3.70;;
26034;SDS011;13809;48.632;11.576;2023-06-05T08:00:08;3.97;;;3.67;;
26034;SDS011;13809;48.632;11.576;2023-06-05T08:05:12;4.17;;;3.87;;
26034;SDS011;13809;48.632;11.576;2023-06-05T08:10:16;4.10;;;3.70;;
26034;SDS011;13809;48.632;11.576;2023-06-05T08:15:20;4.23;;;3.83;;
26034;SDS011;13809;48.632;11.576;2023-06-05T08:20:24;4.73;;;4.20;;
26034;SDS011;13809;48.632;11.576;2023-06-05T08:25:27;4.70;;;4.17;;
26034;SDS011;13809;48.632;11.576;2023-06-05T08:30:32;3.87;;;3.47;;
26034;SDS011;13809;48.632;11.576;2023-06-05T08:35:35;4.80;;;4.40;;
26034;SDS011;13809;48.632;11.576;2023-06-05T09:29:48;4.53;;;4.13;;
26034;SDS011;13809;48.632;11.576;2023-06-05T09:35:05;5.27;;;4.57;;
26034;SDS011;13809;48.632;11.576;2023-06-05T09:40:09;5.50;;;4.80;;
26034;SDS011;13809;48.632;11.576;2023-06-05T09:45:18;4.57;;;4.17;;
26034;SDS011;13809;48.632;11.576;2023-06-05T09:50:21;5.10;;;4.60;;
26034;SDS011;13809;48.632;11.576;2023-06-05T09:55:26;4.90;;;4.50;;
26034;SDS011;13809;48.632;11.576;2023-06-05T10:00:31;4.77;;;4.47;;
26034;SDS011;13809;48.632;11.576;2023-06-05T10:05:35;4.70;;;4.23;;
26034;SDS011;13809;48.632;11.576;2023-06-05T10:10:40;5.03;;;4.63;;
26034;SDS011;13809;48.632;11.576;2023-06-05T10:15:48;4.70;;;4.20;;
26034;SDS011;13809;48.632;11.576;2023-06-05T10:20:54;5.33;;;4.93;;
26034;SDS011;13809;48.632;11.576;2023-06-05T10:26:00;6.50;;;4.63;;
26034;SDS011;13809;48.632;11.576;2023-06-05T10:31:25;5.00;;;4.60;;
26034;SDS011;13809;48.632;11.576;2023-06-05T10:36:42;4.70;;;4.40;;
26034;SDS011;13809;48.632;11.576;2023-06-05T10:42:09;4.97;;;4.47;;
26034;SDS011;13809;48.632;11.576;2023-06-05T10:52:55;5.20;;;4.80;;
26034;SDS011;13809;48.632;11.576;2023-06-05T10:58:06;4.57;;;4.17;;
26034;SDS011;13809;48.632;11.576;2023-06-05T11:03:12;4.10;;;3.80;;
26034;SDS011;13809;48.632;11.576;2023-06-05T11:08:16;4.60;;;4.20;;
26034;SDS011;13809;48.632;11.576;2023-06-05T11:13:21;4.00;;;3.70;;
26034;SDS011;13809;48.632;11.576;2023-06-05T11:18:32;4.43;;;4.03;;
26034;SDS011;13809;48.632;11.576;2023-06-05T11:23:37;4.70;;;4.03;;
26034;SDS011;13809;48.632;11.576;2023-06-05T11:28:41;4.30;;;4.00;;
26034;SDS011;13809;48.632;11.576;2023-06-05T11:33:46;3.90;;;3.60;;
26034;SDS011;13809;48.632;11.576;2023-06-05T11:38:52;4.30;;;3.90;;
26034;SDS011;13809;48.632;11.576;2023-06-05T11:43:57;4.07;;;3.73;;
26034;SDS011;13809;48.632;11.576;2023-06-05T11:49:02;4.23;;;3.90;;
26034;SDS011;13809;48.632;11.576;2023-06-05T11:54:05;4.13;;;3.70;;
26034;SDS011;13809;48.632;11.576;2023-06-05T11:59:15;4.20;;;3.90;;
26034;SDS011;13809;48.632;11.576;2023-06-05T12:04:20;4.07;;;3.67;;
26034;SDS011;13809;48.632;11.576;2023-06-05T12:09:24;4.00;;;3.70;;
26034;SDS011;13809;48.632;11.576;2023-06-05T12:14:28;3.83;;;3.53;;
26034;SDS011;13809;48.632;11.576;2023-06-05T12:19:34;3.60;;;3.33;;
26034;SDS011;13809;48.632;11.576;2023-06-05T12:24:37;3.53;;;3.23;;
26034;SDS011;13809;48.632;11.576;2023-06-05T12:29:53;3.87;;;3.30;;
26034;SDS011;13809;48.632;11.576;2023-06-05T12:34:58;3.70;;;3.40;;
26034;SDS011;13809;48.632;11.576;2023-06-05T12:40:07;3.97;;;3.60;;
26034;SDS011;13809;48.632;11.576;2023-06-05T12:45:13;3.70;;;3.40;;
26034;SDS011;13809;48.632;11.576;2023-06-05T12:50:19;3.40;;;3.20;;
26034;SDS011;13809;48.632;11.576;2023-06-05T12:55:22;3.47;;;3.07;;
26034;SDS011;13809;48.632;11.576;2023-06-05T13:00:25;3.23;;;3.03;;
26034;SDS011;13809;48.632;11.576;2023-06-05T13:05:30;3.20;;;3.00;;
26034;SDS011;13809;48.632;11.576;2023-06-05T13:10:34;3.00;;;2.77;;
26034;SDS011;13809;48.632;11.576;2023-06-05T13:15:38;3.20;;;2.90;;
26034;SDS011;13809;48.632;11.576;2023-06-05T13:20:42;3.27;;;3.00;;
26034;SDS011;13809;48.632;11.576;2023-06-05T13:25:45;3.00;;;2.80;;
26034;SDS011;13809;48.632;11.576;2023-06-05T13:30:48;3.13;;;2.83;;
26034;SDS011;13809;48.632;11.576;2023-06-05T13:35:54;3.10;;;2.90;;
26034;SDS011;13809;48.632;11.576;2023-06-05T13:40:58;3.20;;;3.00;;
26034;SDS011;13809;48.632;11.576;2023-06-05T13:46:01;3.50;;;3.20;;
26034;SDS011;13809;48.632;11.576;2023-06-05T13:51:06;3.13;;;2.90;;
26034;SDS011;13809;48.632;11.576;2023-06-05T13:56:09;4.17;;;2.90;;
26034;SDS011;13809;48.632;11.576;2023-06-05T14:01:13;3.23;;;3.03;;
26034;SDS011;13809;48.632;11.576;2023-06-05T14:06:17;3.60;;;3.30;;
26034;SDS011;13809;48.632;11.576;2023-06-05T14:11:21;4.10;;;3.23;;
26034;SDS011;13809;48.632;11.576;2023-06-05T14:16:24;3.20;;;3.00;;
26034;SDS011;13809;48.632;11.576;2023-06-05T14:21:29;6.43;;;3.43;;
26034;SDS011;13809;48.632;11.576;2023-06-05T14:26:32;7.73;;;3.70;;
26034;SDS011;13809;48.632;11.576;2023-06-05T14:31:36;7.67;;;3.67;;
26034;SDS011;13809;48.632;11.576;2023-06-05T14:36:40;7.23;;;3.43;;
26034;SDS011;13809;48.632;11.576;2023-06-05T14:41:51;5.13;;;3.30;;
26034;SDS011;13809;48.632;11.576;2023-06-05T14:46:54;4.37;;;3.50;;
26034;SDS011;13809;48.632;11.576;2023-06-05T14:51:59;5.93;;;3.30;;
26034;SDS011;13809;48.632;11.576;2023-06-05T15:03:10;3.83;;;3.53;;
26034;SDS011;13809;48.632;11.576;2023-06-05T15:08:15;4.67;;;3.80;;
26034;SDS011;13809;48.632;11.576;2023-06-05T15:13:18;4.20;;;3.80;;
26034;SDS011;13809;48.632;11.576;2023-06-05T15:18:23;3.90;;;3.60;;
26034;SDS011;13809;48.632;11.576;2023-06-05T15:23:34;4.20;;;3.80;;
26034;SDS011;13809;48.632;11.576;2023-06-05T15:28:43;4.00;;;3.63;;
26034;SDS011;13809;48.632;11.576;2023-06-05T15:33:46;4.20;;;3.80;;
26034;SDS011;13809;48.632;11.576;2023-06-05T15:38:51;3.97;;;3.70;;
26034;SDS011;13809;48.632;11.576;2023-06-05T15:43:54;4.03;;;3.63;;
26034;SDS011;13809;48.632;11.576;2023-06-05T15:48:57;4.20;;;3.90;;
26034;SDS011;13809;48.632;11.576;2023-06-05T15:54:02;4.00;;;3.70;;
26034;SDS011;13809;48.632;11.576;2023-06-05T15:59:26;3.80;;;3.50;;
26034;SDS011;13809;48.632;11.576;2023-06-05T16:04:29;3.93;;;3.70;;
26034;SDS011;13809;48.632;11.576;2023-06-05T16:09:35;4.07;;;3.77;;
26034;SDS011;13809;48.632;11.576;2023-06-05T16:14:38;3.60;;;3.30;;
26034;SDS011;13809;48.632;11.576;2023-06-05T16:19:41;3.30;;;3.10;;
26034;SDS011;13809;48.632;11.576;2023-06-05T16:24:47;3.70;;;3.20;;
26034;SDS011;13809;48.632;11.576;2023-06-05T16:29:50;3.10;;;2.90;;
26034;SDS011;13809;48.632;11.576;2023-06-05T16:34:55;2.67;;;2.57;;
26034;SDS011;13809;48.632;11.576;2023-06-05T16:40:01;2.40;;;2.20;;
26034;SDS011;13809;48.632;11.576;2023-06-05T16:45:05;1.70;;;1.60;;
26034;SDS011;13809;48.632;11.576;2023-06-05T16:50:09;2.10;;;1.90;;
26034;SDS011;13809;48.632;11.576;2023-06-05T16:55:13;1.80;;;1.70;;
26034;SDS011;13809;48.632;11.576;2023-06-05T17:00:18;1.30;;;1.30;;
26034;SDS011;13809;48.632;11.576;2023-06-05T17:05:22;1.20;;;1.20;;
26034;SDS011;13809;48.632;11.576;2023-06-05T17:10:27;1.50;;;1.40;;
26034;SDS011;13809;48.632;11.576;2023-06-05T17:15:30;1.20;;;1.20;;
26034;SDS011;13809;48.632;11.576;2023-06-05T17:20:33;0.80;;;0.80;;
26034;SDS011;13809;48.632;11.576;2023-06-05T17:25:38;1.10;;;1.10;;
26034;SDS011;13809;48.632;11.576;2023-06-05T17:30:41;1.60;;;1.20;;
26034;SDS011;13809;48.632;11.576;2023-06-05T17:35:47;1.07;;;1.00;;
26034;SDS011;13809;48.632;11.576;2023-06-05T17:40:54;1.20;;;1.20;;
26034;SDS011;13809;48.632;11.576;2023-06-05T17:45:57;0.90;;;0.90;;
26034;SDS011;13809;48.632;11.576;2023-06-05T17:51:03;1.00;;;1.00;;
26034;SDS011;13809;48.632;11.576;2023-06-05T17:56:22;1.90;;;0.90;;
26034;SDS011;13809;48.632;11.576;2023-06-05T18:01:27;0.90;;;0.90;;
26034;SDS011;13809;48.632;11.576;2023-06-05T18:06:30;1.10;;;1.10;;
26034;SDS011;13809;48.632;11.576;2023-06-05T18:11:35;1.20;;;1.20;;
26034;SDS011;13809;48.632;11.576;2023-06-05T18:16:38;1.33;;;1.10;;
26034;SDS011;13809;48.632;11.576;2023-06-05T18:21:42;1.23;;;1.23;;
26034;SDS011;13809;48.632;11.576;2023-06-05T18:26:46;1.53;;;1.43;;
26034;SDS011;13809;48.632;11.576;2023-06-05T18:31:49;1.60;;;1.40;;
26034;SDS011;13809;48.632;11.576;2023-06-05T18:37:02;2.07;;;1.20;;
26034;SDS011;13809;48.632;11.576;2023-06-05T18:42:43;1.60;;;1.50;;
26034;SDS011;13809;48.632;11.576;2023-06-05T18:47:49;1.60;;;1.50;;
26034;SDS011;13809;48.632;11.576;2023-06-05T18:52:55;1.37;;;1.20;;
26034;SDS011;13809;48.632;11.576;2023-06-05T19:10:56;1.60;;;1.50;;
26034;SDS011;13809;48.632;11.576;2023-06-05T19:16:09;3.80;;;1.60;;
26034;SDS011;13809;48.632;11.576;2023-06-05T19:22:06;1.70;;;1.60;;
26034;SDS011;13809;48.632;11.576;2023-06-05T19:27:20;1.30;;;1.30;;
26034;SDS011;13809;48.632;11.576;2023-06-05T19:32:27;1.30;;;1.30;;
26034;SDS011;13809;48.632;11.576;2023-06-05T19:43:47;2.07;;;1.43;;
26034;SDS011;13809;48.632;11.576;2023-06-05T19:49:02;2.20;;;1.27;;
26034;SDS011;13809;48.632;11.576;2023-06-05T19:54:24;1.40;;;1.30;;
26034;SDS011;13809;48.632;11.576;2023-06-05T20:56:12;1.53;;;1.43;;
26034;SDS011;13809;48.632;11.576;2023-06-05T21:02:00;1.60;;;1.50;;
26034;SDS011;13809;48.632;11.576;2023-06-05T21:07:03;1.90;;;1.80;;
26034;SDS011;13809;48.632;11.576;2023-06-05T21:12:20;2.07;;;1.97;;
26034;SDS011;13809;48.632;11.576;2023-06-05T21:18:08;1.80;;;1.70;;
26034;SDS011;13809;48.632;11.576;2023-06-05T21:23:16;2.10;;;2.00;;
26034;SDS011;13809;48.632;11.576;2023-06-05T21:33:50;1.90;;;1.80;;
26034;SDS011;13809;48.632;11.576;2023-06-05T21:38:53;1.77;;;1.67;;
26034;SDS011;13809;48.632;11.576;2023-06-05T21:43:56;2.10;;;2.00;;
26034;SDS011;13809;48.632;11.576;2023-06-05T21:49:01;1.97;;;1.87;;
26034;SDS011;13809;48.632;11.576;2023-06-05T21:54:04;2.10;;;2.00;;
26034;SDS011;13809;48.632;11.576;2023-06-05T21:59:07;1.90;;;1.80;;
26034;SDS011;13809;48.632;11.576;2023-06-05T22:04:12;2.43;;;2.23;;
26034;SDS011;13809;48.632;11.576;2023-06-05T22:09:15;1.87;;;1.77;;
26034;SDS011;13809;48.632;11.576;2023-06-05T22:14:19;2.13;;;2.03;;
26034;SDS011;13809;48.632;11.576;2023-06-05T22:19:24;2.37;;;2.27;;
26034;SDS011;13809;48.632;11.576;2023-06-05T22:24:29;2.77;;;2.57;;
26034;SDS011;13809;48.632;11.576;2023-06-05T22:29:32;2.50;;;2.30;;
26034;SDS011;13809;48.632;11.576;2023-06-05T22:34:36;2.00;;;1.90;;
26034;SDS011;13809;48.632;11.576;2023-06-05T22:39:41;2.50;;;2.30;;
26034;SDS011;13809;48.632;11.576;2023-06-05T22:44:44;1.90;;;1.80;;
26034;SDS011;13809;48.632;11.576;2023-06-05T22:49:48;2.07;;;1.93;;
26034;SDS011;13809;48.632;11.576;2023-06-05T22:54:54;2.93;;;2.37;;
26034;SDS011;13809;48.632;11.576;2023-06-05T22:59:57;2.33;;;2.13;;
26034;SDS011;13809;48.632;11.576;2023-06-05T23:05:03;2.30;;;2.10;;
26034;SDS011;13809;48.632;11.576;2023-06-05T23:10:07;2.60;;;2.40;;
26034;SDS011;13809;48.632;11.576;2023-06-05T23:15:10;2.63;;;2.17;;
26034;SDS011;13809;48.632;11.576;2023-06-05T23:20:16;2.27;;;2.17;;
26034;SDS011;13809;48.632;11.576;2023-06-05T23:25:19;2.63;;;2.17;;
26034;SDS011;13809;48.632;11.576;2023-06-05T23:30:22;2.50;;;2.30;;
26034;SDS011;13809;48.632;11.576;2023-06-05T23:35:26;2.30;;;2.20;;
26034;SDS011;13809;48.632;11.576;2023-06-05T23:40:30;4.40;;;2.30;;
26034;SDS011;13809;48.632;11.576;2023-06-05T23:45:34;2.50;;;2.30;;
26034;SDS011;13809;48.632;11.576;2023-06-05T23:50:39;3.37;;;2.50;;
26034;SDS011;13809;48.632;11.576;2023-06-05T23:55:42;2.60;;;2.40;;
